Tiempo atmosférico en la estación meteorológica de Águilas, Murcia (26 m.)



Fecha
DESCASC
Temp. máxima en grados centígrados (hora)
DESCASC
Temp. mínima en grados centígrados (hora)
DESCASC
Temp. media en grados centígrados
DESCASC
Racha de viento máxima en m/sg (hora)
DESCASC
Velocidad máxima media en intervalos de 10 minutos(hora)
DESCASC
Precipitaciones diarias en mm
DESCASC
Precipitaciones de 00:00 a 06:00 en mm
DESCASC
Precipitaciones de 06:00 a 12:00 en mm
DESCASC
Precipitaciones de 12:00 a 18:00 en mm
DESCASC
Precipitaciones de 18:00 a 24:00 en mm
DESCASC
20-01-2020 12.1 (23:59) 7.8 (00:00) 10 21.39 (09:10) 9.17 (09:10) 9.2 0.2 0.8 6.8 1.4
19-01-2020 17.2 (13:40) 7.1 (00:00) 12.2 16.67 (20:50) 7.5 (20:50) 4.4 0 0 0 4.4
21-01-2020 13.8 (14:10) 8.7 (00:00) 11.3 13.06 (03:10) 6.11 (03:00) 33.8 10.4 4.6 0.6 18.2
22-01-2020 16.9 (16:20) 8 (00:00) 12.4 10.28 (10:40) 5.83 (10:50) 0.4 0.2 0 0 0.2
11-01-2020 17.8 (13:20) 8.3 (00:00) 13 9.72 (05:10) 5.83 (15:40) 0 0 0 0 0
27-12-2019 18.3 (12:30) 9.9 (00:00) 14.1 7.78 (11:20) 4.44 (12:10) 0 0 0 0 0
24-01-2020 18.4 (13:40) 9 (00:00) 13.7 7.5 (12:20) 4.17 (12:20) 1.6 0 0 1.6 0
13-01-2020 16.1 (15:00) 5.1 (00:00) 10.6 7.5 (16:30) 3.61 (16:30) 0 0 0 0 0
10-01-2020 17.3 (14:10) 7.8 (00:00) 12.5 7.5 (14:40) 4.72 (14:20) 0 0 0 0 0
08-01-2020 15.9 (12:30) 6.7 (00:00) 11.3 7.5 (13:10) 4.72 (13:00) 0 0 0 0 0
28-12-2019 17.7 (12:40) 9 (00:00) 13.4 6.67 (15:50) 4.72 (15:50) 0 0 0 0 0
23-01-2020 16.7 (14:40) 8.7 (00:00) 12.7 6.67 (11:50) 4.17 (16:30) 0.2 0.2 0 0 0
29-12-2019 18.3 (12:40) 7.8 (00:00) 13 5.28 (15:50) 3.61 (15:10) 0 0 0 0 0
17-01-2020 18.6 (14:00) 7.1 (00:00) 12.9 5 (15:40) 2.78 (04:50) 0 0 0 0 0
25-01-2020 16.1 (14:00) 9 (00:00) 12.6 5 (15:20) 3.06 (15:20) 0 0 0 0 0
07-01-2020 16.2 (15:00) 6.3 (00:00) 11.3 5 (11:50) 2.5 (14:30) 0 0 0 0 0
14-01-2020 16.7 (13:30) 6.1 (00:00) 11.4 5 (15:10) 2.78 (14:40) 0 0 0 0 0
12-01-2020 16.6 (12:20) 5.3 (00:00) 11 5 (12:20) 3.06 (12:30) 0 0 0 0 0
04-01-2020 15.1 (13:00) 8.3 (00:00) 11.7 4.72 (13:10) 2.78 (15:00) 0 0 0 0 0
05-01-2020 16.3 (12:00) 6.6 (00:00) 11.4 4.72 (13:30) 2.5 (14:20) 0 0 0 0 0
18-01-2020 14.9 (10:10) 8.9 (00:00) 11.9 4.72 (14:50) 2.78 (14:50) 2 0 1 1 0
01-01-2020 16.6 (11:50) 6.9 (00:00) 11.8 4.72 (15:10) 2.22 (13:30) 0 0 0 0 0
06-01-2020 16.2 (11:50) 5.8 (00:00) 11 4.72 (15:20) 2.5 (15:30) 0.2 0 0.2 0 0
09-01-2020 17.5 (13:10) 8.7 (00:00) 13.1 4.72 (15:00) 2.78 (15:00) 0 0 0 0 0
02-01-2020 14.7 (16:10) 7.6 (00:00) 11.1 4.44 (14:20) 2.5 (02:50) 0 0 0 0 0
15-01-2020 17.3 (13:50) 7 (00:00) 12.1 4.17 (14:30) 2.5 (07:30) 0 0 0 0 0
16-01-2020 17.8 (16:40) 7.3 (00:00) 12.5 4.17 (13:00) 2.5 (13:00) 0 0 0 0 0
03-01-2020 16.1 (14:00) 6 (00:00) 11.1 3.89 (14:50) 2.22 (08:10) 0 0 0 0 0
30-12-2019 17.2 (14:40) 10.3 (00:00) 13.8 3.89 (14:10) 2.22 (14:10) 0 0 0 0 0
31-12-2019 15.7 (13:10) 8.2 (00:00) 11.9 3.61 (15:00) 1.94 (14:30) 0 0 0 0 0

Gráficas

Temp. máximas Temp. mínimas Temp. medias Precipitaciones Rachas de viento máximas Velocidades máximas media en intervalos de 10 minutos

Datos horarios

Fecha y hora oficial Temperatura (ºC) Velocidad del viento (km/h) Dirección del viento Racha (km/h) Dirección de racha Precipitación (mm) Presión (hPa) Tendencia (hPa) Humedad (%)
2020-01-25 23:00:00 10.3 5 Norte 9 Norte 0 1015.8 0.9 83
2020-01-25 22:00:00 10.5 0 Calma 9 Norte 0 1015.4 1.1 80
2020-01-25 21:00:00 11.1 4 Norte 8 Norte 0 1015.2 1.5 82
2020-01-25 20:00:00 11.2 2 Norte 8 Nordeste 0 1014.9 0.9 80
2020-01-25 19:00:00 12.2 4 Norte 9 Noroeste 0 1014.3 0.5 79
2020-01-25 18:00:00 13.9 2 Oeste 14 Sudoeste 0 1013.7 0 72
2020-01-25 17:00:00 14.2 6 Sudoeste 12 Oeste 0 1014 -0.3 70
2020-01-25 16:00:00 14.8 5 Sur 18 Sudoeste 0 1013.8 -1.5 66
2020-01-25 15:00:00 15.9 6 Sur 13 Sur 0 1013.7 -2.1 60
2020-01-25 14:00:00 16 3 Oeste 15 Oeste 0 1014.3 -1.5 60
2020-01-25 13:00:00 15.1 4 Sudoeste 10 Oeste 0 1015.3 0.2 61
2020-01-25 12:00:00 13.7 2 Oeste 8 Sudoeste 0 1015.8 1 73
2020-01-25 11:00:00 12.5 2 Sudoeste 5 Este 0 1015.8 1.1 80
2020-01-25 10:00:00 11.2 0 Calma 7 Norte 0 1015.1 0.1 82
2020-01-25 09:00:00 10.6 5 Noroeste 8 Noroeste 0 1014.8 0.1 82
2020-01-25 08:00:00 10.3 2 Este 12 Nordeste 0 1014.7 -0.1 81
2020-01-25 07:00:00 10 5 Norte 11 Noroeste 0 1015 -0.1 84
2020-01-25 06:00:00 10 8 Nordeste 10 Norte 0 1014.7 -0.8 85
2020-01-25 05:00:00 9.2 4 Noroeste 8 Norte 0 1014.8 -1.1 86
2020-01-25 04:00:00 9.3 4 Norte 9 Nordeste 0 1015.1 -1.4 85
2020-01-25 03:00:00 9.6 3 Nordeste 7 Este 0 1015.5 -1.1 85
2020-01-25 02:00:00 10.6 2 Norte 7 Noroeste 0 1015.9 -0.9 84
2020-01-25 01:00:00 10.9 5 Norte 9 Norte 0 1016.5 -0.4 84
2020-01-25 00:00:00 10.9 4 Nordeste 7 Nordeste 0 1016.6 -0.4 85
2020-01-24 23:00:00 11.2 2 Nordeste 5 Noroeste 0 1016.8 0.1 84
2020-01-24 22:00:00 11.6 2 Norte 8 Nordeste 0 1016.9 0.7 81
2020-01-24 21:00:00 12.4 6 Nordeste 9 Norte 0 1017 0.9 82
2020-01-24 20:00:00 12.7 4 Nordeste 8 Norte 0 1016.7 0.6 82
2020-01-24 19:00:00 13.7 5 Este 14 Este 0 1016.2 0.2 81
2020-01-24 18:00:00 14.3 7 Sudeste 16 Sudeste 0 1016.1 -0.1 77
2020-01-24 17:00:00 14.9 7 Sudeste 15 Sur 0 1016.1 -0.5 73
2020-01-24 16:00:00 15.6 4 Nordeste 11 Este 0 1016 -1.3 67
2020-01-24 15:00:00 14.9 4 Nordeste 15 Sur 1.6 1016.2 -1.7 71
2020-01-24 14:00:00 16.8 4 Sur 27 Este 0 1016.6 -1.8 57
2020-01-24 13:00:00 16.7 13 Este 27 Este 0 1017.3 -0.4 59
2020-01-24 12:00:00 16.1 13 Nordeste 23 Este 0 1017.9 0.5 62
2020-01-24 11:00:00 14.9 7 Este 18 Nordeste 0 1018.4 1.3 67
2020-01-24 10:00:00 14.4 8 Nordeste 17 Este 0 1017.7 0.9 68
2020-01-24 09:00:00 12 4 Nordeste 10 Norte 0 1017.4 1.1 78
2020-01-24 08:00:00 11.6 5 Nordeste 12 Nordeste 0 1017.1 1 79
2020-01-24 07:00:00 10 2 Noroeste 6 Nordeste 0 1016.8 0.4 83
2020-01-24 06:00:00 9.8 2 Este 6 Sudoeste 0 1016.3 -0.6 83
2020-01-24 05:00:00 9.7 0 Calma 6 Sudeste 0 1016.1 -0.9 81
2020-01-24 04:00:00 9.3 3 Sudoeste 9 Nordeste 0 1016.4 -0.8 81
2020-01-24 03:00:00 9.6 4 Norte 9 Norte 0 1016.9 -0.3 79
2020-01-24 02:00:00 9.1 2 Noroeste 7 Noroeste 0 1017 -0.4 80
2020-01-24 01:00:00 10.1 5 Nordeste 8 Norte 0 1017.2 0.1 78
2020-01-24 00:00:00 9.5 3 Nordeste 11 Nordeste 0 1017.2 0.3 80
2020-01-23 23:00:00 9.5 3 Norte 7 Norte 0 1017.4 0.8 80
2020-01-23 22:00:00 10.4 0 Calma 9 Nordeste 0 1017.1 0.9 77
2020-01-23 21:00:00 11.4 5 Nordeste 8 Norte 0 1016.9 1.1 80
2020-01-23 20:00:00 12.4 5 Nordeste 9 Este 0 1016.6 1 77
2020-01-23 19:00:00 13 7 Nordeste 13 Este 0 1016.2 1 78
2020-01-23 18:00:00 14.1 7 Este 20 Este 0 1015.8 0.6 75
2020-01-23 17:00:00 15.4 12 Este 23 Sudeste 0 1015.6 -0.2 67
2020-01-23 16:00:00 16 10 Sudeste 23 Este 0 1015.2 -1.3 63
2020-01-23 15:00:00 16.4 14 Sudeste 23 Sudeste 0 1015.2 -1.8 61
2020-01-23 14:00:00 16 12 Sudeste 22 Sudeste 0 1015.8 -1.4 63
2020-01-23 13:00:00 16.2 11 Sudeste 20 Sudeste 0 1016.5 -0.2 62
2020-01-23 12:00:00 15.8 13 Este 24 Sudeste 0 1017 1 63
2020-01-23 11:00:00 15 9 Este 18 Este 0 1017.2 1.7 69
2020-01-23 10:00:00 12.5 5 Este 12 Este 0 1016.7 1.8 83
2020-01-23 09:00:00 10.3 4 Nordeste 8 Norte 0 1016 1.3 86
2020-01-23 08:00:00 10 0 Calma 8 Nordeste 0 1015.5 0.6 85
2020-01-23 07:00:00 9.5 5 Norte 10 Norte 0 1014.9 -0.2 86
2020-01-23 06:00:00 8.8 3 Norte 6 Nordeste 0 1014.7 -0.4 85
2020-01-23 05:00:00 9.7 5 Noroeste 7 Noroeste 0 1014.9 -0.1 83
2020-01-23 04:00:00 10.9 3 Nordeste 10 Nordeste 0 1015.1 0 81
2020-01-23 03:00:00 11.2 4 Nordeste 10 Norte 0 1015.1 0.1 82
2020-01-23 02:00:00 11.1 7 Nordeste 13 Nordeste 0.2 1015 0.3 81
2020-01-23 01:00:00 10.3 5 Norte 9 Norte 0 1015.1 0.6 82
2020-01-23 00:00:00 11 5 Nordeste 11 Nordeste 0 1015 0.9 83
2020-01-22 23:00:00 11.1 4 Noroeste 11 Norte 0.2 1014.7 0.8 83
2020-01-22 22:00:00 11.6 3 Nordeste 8 Nordeste 0 1014.5 1.4 79
2020-01-22 21:00:00 11.2 0 Calma 8 Norte 0 1014.1 1.9 76
2020-01-22 20:00:00 11.1 4 Norte 9 Norte 0 1013.9 2.1 73
2020-01-22 19:00:00 12 4 Noroeste 9 Noroeste 0 1013.1 1.4 68
2020-01-22 18:00:00 14 5 Noroeste 17 Nordeste 0 1012.2 0 60
2020-01-22 17:00:00 16 9 Este 24 Este 0 1011.8 -1 51
2020-01-22 16:00:00 16.4 6 Este 31 Norte 0 1011.7 -2.3 47
2020-01-22 15:00:00 15 15 Norte 37 Norte 0 1012.2 -1.9 52
2020-01-22 14:00:00 15.6 14 Noroeste 34 Noroeste 0 1012.8 -1.2 56
2020-01-22 13:00:00 16 5 Este 35 Sudeste 0 1014 0.4 56
2020-01-22 12:00:00 16 19 Este 36 Este 0 1014.1 0.4 59
2020-01-22 11:00:00 14.8 18 Este 37 Este 0 1014 0.4 63
2020-01-22 10:00:00 12.7 14 Este 31 Este 0 1013.6 0.5 73
2020-01-22 09:00:00 11.7 14 Este 27 Este 0 1013.7 0.9 75
2020-01-22 08:00:00 11.5 14 Nordeste 24 Nordeste 0 1013.6 0.8 75
2020-01-22 07:00:00 11.2 11 Este 21 Nordeste 0 1013.1 -0.2 77
2020-01-22 06:00:00 10.5 9 Este 16 Nordeste 0 1012.8 -0.5 80
2020-01-22 05:00:00 8.7 5 Nordeste 8 Este 0 1012.8 -0.6 82
2020-01-22 04:00:00 9.5 6 Norte 11 Nordeste 0.2 1013.3 0.1 81
2020-01-22 03:00:00 10.1 7 Nordeste 14 Nordeste 0 1013.3 0.2 81
2020-01-22 02:00:00 9.5 8 Nordeste 15 Nordeste 0 1013.4 0.9 84
2020-01-22 01:00:00 8.2 4 Norte 8 Norte 0 1013.2 1.1 85
2020-01-22 00:00:00 8.7 2 Norte 5 Nordeste 0 1013.1 1.4 85
2020-01-21 23:00:00 9.6 0 Calma 5 Nordeste 0 1012.5 1.4 84
2020-01-21 22:00:00 10.3 4 Noroeste 9 Noroeste 0 1012.1 1.3 83
2020-01-21 21:00:00 10.4 3 Noroeste 19 Nordeste 1.2 1011.7 1.8 83
2020-01-21 20:00:00 10.2 7 Norte 15 Norte 5.4 1011.1 1.9 83
2020-01-21 19:00:00 10.1 7 Norte 14 Norte 11.6 1010.8 2.2 83
2020-01-21 18:00:00 11 5 Norte 13 Noroeste 0.4 1009.9 1.6 79
2020-01-21 17:00:00 11.7 6 Este 16 Este 0 1009.2 1.1 74
2020-01-21 16:00:00 12.4 11 Este 18 Este 0 1008.6 0.5 67
2020-01-21 15:00:00 13.3 4 Sudeste 14 Sudeste 0.2 1008.3 0.2 65
2020-01-21 14:00:00 13.7 4 Sur 12 Norte 0 1008.1 -0.4 62
2020-01-21 13:00:00 11.3 7 Norte 23 Noroeste 0 1008.1 0.4 68
2020-01-21 12:00:00 10.6 9 Noroeste 21 Noroeste 0 1008.1 0.4 72
2020-01-21 11:00:00 9.9 9 Norte 17 Norte 0.2 1008.5 1.4 78
2020-01-21 10:00:00 9.9 8 Noroeste 17 Noroeste 0 1007.7 -0.2 77
2020-01-21 09:00:00 9.5 8 Noroeste 25 Noroeste 0 1007.7 0.4 78
2020-01-21 08:00:00 9.3 9 Norte 17 Norte 1.4 1007.1 0.2 80
2020-01-21 07:00:00 9.6 5 Nordeste 13 Noroeste 3 1007.9 0.2 80
2020-01-21 06:00:00 10.4 8 Nordeste 39 Nordeste 1 1007.3 -1.4 72
2020-01-21 05:00:00 10.7 8 Norte 37 Nordeste 3.8 1006.9 -1.8 70
2020-01-21 04:00:00 10.4 8 Sur 47 Nordeste 4 1007.7 -2.3 72
2020-01-21 03:00:00 11.3 22 Nordeste 46 Nordeste 1.6 1008.7 -2.5 70
2020-01-21 02:00:00 12.8 15 Nordeste 37 Nordeste 0 1008.7 -3.1 56
2020-01-21 01:00:00 12.2 11 Nordeste 27 Nordeste 0 1010 -1.8 58
2020-01-21 00:00:00 12.1 11 Nordeste 34 Nordeste 0 1011.2 -1 60
2020-01-20 23:00:00 11.2 14 Nordeste 34 Nordeste 0.2 1011.8 -0.3 65
2020-01-20 22:00:00 10.9 8 Nordeste 27 Nordeste 0 1011.8 0.1 67
2020-01-20 21:00:00 10.6 12 Nordeste 30 Nordeste 0 1012.2 1.5 70
2020-01-20 20:00:00 10 18 Este 34 Nordeste 0.6 1012.1 0.7 76
2020-01-20 19:00:00 10 10 Nordeste 30 Nordeste 0.6 1011.7 0.5 76
2020-01-20 18:00:00 10.4 13 Nordeste 29 Este 0.6 1010.7 0 70
2020-01-20 17:00:00 9.8 17 Nordeste 30 Nordeste 4 1011.4 0.1 76
2020-01-20 16:00:00 10.6 16 Nordeste 33 Nordeste 0.8 1011.2 -0.9 72
2020-01-20 15:00:00 11.9 14 Nordeste 32 Nordeste 0 1010.7 -1.3 62
2020-01-20 14:00:00 11.4 10 Nordeste 26 Nordeste 0.8 1011.3 -0.3 64
2020-01-20 13:00:00 10.5 17 Nordeste 33 Nordeste 0.6 1012.1 1.3 70
2020-01-20 12:00:00 10.5 19 Nordeste 50 Nordeste 0.2 1012 2.8 66
2020-01-20 11:00:00 10.1 24 Nordeste 53 Nordeste 0.2 1011.6 2.4 63
2020-01-20 10:00:00 9.4 24 Nordeste 77 Nordeste 0.4 1010.8 2 70
2020-01-20 09:00:00 9.9 31 Nordeste 64 Nordeste 0 1009.2 -0.1 62
2020-01-20 08:00:00 9.2 15 Nordeste 57 Nordeste 0 1009.2 -0.5 56
2020-01-20 07:00:00 8.3 13 Nordeste 40 Nordeste 0 1008.8 -1.3 58
2020-01-20 06:00:00 8.5 14 Nordeste 46 Nordeste 0 1009.3 -1.2 59
2020-01-20 05:00:00 8.4 14 Nordeste 50 Nordeste 0 1009.7 -1.5 61
2020-01-20 04:00:00 8.7 16 Nordeste 50 Norte 0 1010.1 -1.7 61
2020-01-20 03:00:00 9 14 Nordeste 54 Nordeste 0 1010.5 -1.5 59
2020-01-20 02:00:00 9.1 12 Norte 36 Nordeste 0 1011.2 -1.1 61
2020-01-20 01:00:00 9.2 10 Nordeste 39 Norte 0.2 1011.8 -0.4 63
2020-01-20 00:00:00 8.7 17 Norte 51 Nordeste 0.8 1012 -0.4 65
2020-01-19 23:00:00 7.2 15 Norte 48 Noroeste 1 1012.3 0.1 71
2020-01-19 22:00:00 7.1 14 Norte 44 Nordeste 2 1012.2 0.9 73
2020-01-19 21:00:00 8.6 26 Nordeste 60 Norte 0.6 1012.4 1 66
2020-01-19 20:00:00 10.5 21 Nordeste 54 Nordeste 0 1012.2 1.3 49
2020-01-19 19:00:00 11 9 Norte 37 Norte 0 1011.3 1.1 47
2020-01-19 18:00:00 11.7 14 Norte 38 Norte 0 1011.4 1.5 46
2020-01-19 17:00:00 13.7 10 Norte 42 Norte 0 1010.9 0.8 43
2020-01-19 16:00:00 15.2 16 Norte 36 Norte 0 1010.2 -0.6 39
2020-01-19 15:00:00 15.8 19 Norte 37 Norte 0 1009.9 -1.6 34
2020-01-19 14:00:00 16.5 19 Norte 48 Norte 0 1010.1 -1.4 32
2020-01-19 13:00:00 16.7 16 Norte 42 Norte 0 1010.8 -0.7 31
2020-01-19 12:00:00 15.7 12 Norte 50 Norte 0 1011.5 -0.1 36
2020-01-19 11:00:00 15.2 21 Noroeste 46 Noroeste 0 1011.5 -0.3 38
2020-01-19 10:00:00 13.7 21 Noroeste 40 Noroeste 0 1011.5 -0.1 42
2020-01-19 09:00:00 11.9 7 Oeste 24 Norte 0 1011.6 0.1 50
2020-01-19 08:00:00 12.3 10 Norte 36 Norte 0 1011.8 0.1 50
2020-01-19 07:00:00 11.9 9 Norte 20 Norte 0 1011.6 -1 59
2020-01-19 06:00:00 11 7 Norte 13 Norte 0 1011.5 -2.5 72
2020-01-19 05:00:00 11.1 7 Este 12 Norte 0 1011.7 -3 80
2020-01-19 04:00:00 11.7 4 Oeste 14 Sudeste 0 1012.6 -3 78
2020-01-19 03:00:00 11.2 6 Nordeste 12 Nordeste 0 1014 -2.5 78
2020-01-19 02:00:00 10.5 5 Este 14 Nordeste 0 1014.7 -2.9 79
2020-01-19 01:00:00 10 2 Este 13 Nordeste 0 1015.6 -2.9 81
2020-01-19 00:00:00 9.1 3 Noroeste 10 Norte 0 1016.5 -3 83
2020-01-18 23:00:00 10 4 Norte 11 Norte 0 1017.6 -2.8 81
2020-01-18 22:00:00 9.8 3 Norte 9 Norte 0 1018.5 -2.7 81
2020-01-18 21:00:00 11.5 5 Norte 12 Norte 0 1019.5 -2.7 79
2020-01-18 20:00:00 11.8 4 Noroeste 10 Norte 0 1020.4 -2.8 80
2020-01-18 19:00:00 12.1 7 Nordeste 10 Nordeste 0 1021.2 -2.8 79
2020-01-18 18:00:00 12.9 3 Norte 10 Oeste 0 1022.2 -2.2 76
2020-01-18 17:00:00 13.7 4 Oeste 14 Oeste 0 1023.2 -2.3 73
2020-01-18 16:00:00 13.7 7 Oeste 17 Oeste 0 1024 -2.8 71
2020-01-18 15:00:00 13.8 10 Oeste 17 Oeste 0 1024.4 -3.7 74
2020-01-18 14:00:00 13.3 6 Oeste 12 Oeste 0.2 1025.5 -2.9 79
2020-01-18 13:00:00 12.4 4 Oeste 10 Noroeste 0.8 1026.8 -0.8 79
2020-01-18 12:00:00 13.2 3 Norte 11 Nordeste 1 1028.1 1.3 69
2020-01-18 11:00:00 13.9 3 Noroeste 10 Oeste 0 1028.4 1.6 66
2020-01-18 10:00:00 14.8 3 Nordeste 10 Nordeste 0 1027.6 0.8 54
2020-01-18 09:00:00 14.3 4 Nordeste 15 Nordeste 0 1026.8 0.2 52
2020-01-18 08:00:00 12.5 5 Norte 12 Norte 0 1026.8 0 61
2020-01-18 07:00:00 11.1 6 Norte 10 Norte 0 1026.8 -1 66
2020-01-18 06:00:00 9.4 2 Norte 7 Norte 0 1026.6 -0.8 70
2020-01-18 05:00:00 10.1 0 Calma 10 Norte 0 1026.8 -1.6 66
2020-01-18 04:00:00 10.3 8 Norte 13 Norte 0 1027.8 -0.9 66
2020-01-18 03:00:00 10.6 3 Nordeste 8 Nordeste 0 1027.4 -1.2 71
2020-01-18 02:00:00 12.1 5 Norte 9 Norte 0 1028.4 0.2 74
2020-01-18 01:00:00 11.9 4 Norte 7 Norte 0 1028.7 0.5 68
2020-01-18 00:00:00 11.5 2 Sudeste 10 Norte 0 1028.6 0.8 70
2020-01-17 23:00:00 11.6 0 Calma 6 Norte 0 1028.2 0.7 73
2020-01-17 22:00:00 12.3 3 Nordeste 7 Nordeste 0 1028.2 1 76
2020-01-17 21:00:00 12.7 4 Nordeste 8 Nordeste 0 1027.8 1.7 74
2020-01-17 20:00:00 13.2 3 Nordeste 10 Nordeste 0 1027.5 1.6 78
2020-01-17 19:00:00 14.2 2 Este 6 Este 0 1027.2 1.4 79
2020-01-17 18:00:00 15.6 4 Sur 6 Sur 0 1026.1 0.3 73
2020-01-17 17:00:00 17 4 Sudoeste 14 Sudoeste 0 1025.9 -0.4 67
2020-01-17 16:00:00 17.7 6 Sudoeste 18 Sur 0 1025.8 -1.2 64
2020-01-17 15:00:00 18.2 7 Sur 17 Sudoeste 0 1025.8 -2.2 59
2020-01-17 14:00:00 18.6 6 Sur 16 Sur 0 1026.3 -1.4 35
2020-01-17 13:00:00 17.9 6 Sur 16 Sudeste 0 1027 0 41
2020-01-17 12:00:00 17.9 6 Sudeste 14 Sur 0 1028 1.9 48
2020-01-17 11:00:00 16.1 6 Sudeste 14 Sudeste 0 1027.7 1.7 54
2020-01-17 10:00:00 14.6 6 Sudeste 15 Nordeste 0 1027 1.5 58
2020-01-17 09:00:00 10.3 5 Este 10 Nordeste 0 1026.1 1 62
2020-01-17 08:00:00 8.5 3 Este 11 Norte 0 1026 0.9 61
2020-01-17 07:00:00 8.4 4 Nordeste 11 Noroeste 0 1025.5 0.2 61
2020-01-17 06:00:00 9 7 Nordeste 11 Nordeste 0 1025.1 0.1 59
2020-01-17 05:00:00 8.9 8 Norte 14 Norte 0 1025.1 0 63
2020-01-17 04:00:00 8 5 Norte 15 Noroeste 0 1025.3 0.2 69
2020-01-17 03:00:00 7.8 3 Nordeste 9 Norte 0 1025 -0.6 74
2020-01-17 02:00:00 7.7 4 Noroeste 11 Norte 0 1025.1 -0.2 72
2020-01-17 01:00:00 8.4 7 Noroeste 10 Noroeste 0 1025.1 0.1 70
2020-01-17 00:00:00 8.7 3 Noroeste 10 Nordeste 0 1025.6 0.6 70
2020-01-16 23:00:00 10.3 6 Norte 11 Norte 0 1025.3 0.4 70
2020-01-16 22:00:00 10.6 3 Nordeste 11 Nordeste 0 1025 0.6 67
2020-01-16 21:00:00 11.4 4 Nordeste 10 Nordeste 0 1025 1.2 65
2020-01-16 20:00:00 11.8 5 Nordeste 9 Nordeste 0 1024.9 1.3 57
2020-01-16 19:00:00 12.7 2 Noroeste 5 Noroeste 0 1024.4 0.9 60
2020-01-16 18:00:00 16.3 2 Sudoeste 5 Sur 0 1023.8 0 44
2020-01-16 17:00:00 17.7 4 Sudoeste 12 Sur 0 1023.6 -0.4 35
2020-01-16 16:00:00 17.4 6 Sur 14 Sudoeste 0 1023.5 -1.2 46
2020-01-16 15:00:00 16.9 9 Sur 13 Sur 0 1023.8 -1.8 55
2020-01-16 14:00:00 17.1 7 Sur 15 Sur 0 1024 -1.8 55
2020-01-16 13:00:00 16.6 9 Sudeste 15 Sudeste 0 1024.7 -0.7 54
2020-01-16 12:00:00 17.4 5 Sur 10 Sudoeste 0 1025.6 0.6 53
2020-01-16 11:00:00 16.7 4 Sur 7 Norte 0 1025.8 1.3 60
2020-01-16 10:00:00 13.5 4 Noroeste 10 Nordeste 0 1025.4 1.4 58
2020-01-16 09:00:00 10.5 6 Nordeste 11 Nordeste 0 1025 1.3 58
2020-01-16 08:00:00 7.9 3 Nordeste 9 Nordeste 0 1024.5 0.5 61
2020-01-16 07:00:00 8.9 5 Nordeste 10 Nordeste 0 1024 -0.1 56
2020-01-16 06:00:00 8.2 3 Este 13 Norte 0 1023.7 -0.4 62
2020-01-16 05:00:00 9.2 6 Nordeste 10 Nordeste 0 1024 0 70
2020-01-16 04:00:00 8.7 4 Nordeste 10 Nordeste 0 1024.1 -0.3 69
2020-01-16 03:00:00 8.6 3 Nordeste 10 Nordeste 0 1024.1 -0.5 71
2020-01-16 02:00:00 7.9 3 Este 8 Norte 0 1024 -0.6 68
2020-01-16 01:00:00 9.6 5 Nordeste 9 Nordeste 0 1024.4 0 61
2020-01-16 00:00:00 8.7 3 Norte 8 Norte 0 1024.6 0.1 65
2020-01-15 23:00:00 9.1 2 Nordeste 10 Este 0 1024.6 0.2 66
2020-01-15 22:00:00 8.7 5 Noroeste 8 Noroeste 0 1024.4 0.1 62
2020-01-15 21:00:00 9.1 2 Norte 8 Norte 0 1024.5 0.7 61
2020-01-15 20:00:00 9.6 3 Noroeste 8 Norte 0 1024.4 1.1 64
2020-01-15 19:00:00 11.9 4 Norte 8 Norte 0 1024.3 1.3 62
2020-01-15 18:00:00 14.6 3 Noroeste 9 Oeste 0 1023.8 0.9 59
2020-01-15 17:00:00 15.9 5 Sudoeste 11 Sudoeste 0 1023.3 0.3 49
2020-01-15 16:00:00 16.6 6 Sudoeste 13 Sudoeste 0 1023 -0.5 47
2020-01-15 15:00:00 16.4 6 Sur 15 Sudoeste 0 1022.9 -1.1 48
2020-01-15 14:00:00 17 8 Sur 13 Sur 0 1023 -1.1 44
2020-01-15 13:00:00 17 5 Sur 9 Sudoeste 0 1023.5 0.3 48
2020-01-15 12:00:00 16 5 Sur 8 Sur 0 1024 1.5 54
2020-01-15 11:00:00 15.5 3 Sur 5 Sur 0 1024.1 2.2 59
2020-01-15 10:00:00 13.4 0 Calma 7 Sudeste 0 1023.2 2.2 55
2020-01-15 09:00:00 9 3 Norte 13 Nordeste 0 1022.5 2.1 66
2020-01-15 08:00:00 9 4 Norte 14 Norte 0 1021.9 1.8 64
2020-01-15 07:00:00 8.8 8 Nordeste 11 Nordeste 0 1021 0.7 66
2020-01-15 06:00:00 7.3 2 Nordeste 8 Norte 0 1020.4 0.1 69
2020-01-15 05:00:00 8.9 5 Norte 12 Nordeste 0 1020.1 0.1 62
2020-01-15 04:00:00 9.1 9 Norte 11 Norte 0 1020.3 0 67
2020-01-15 03:00:00 7.6 2 Norte 9 Norte 0 1020.3 0.1 77
2020-01-15 02:00:00 8.1 3 Nordeste 10 Nordeste 0 1020 -0.2 77
2020-01-15 01:00:00 7.7 2 Nordeste 6 Noroeste 0 1020.3 0.5 78
2020-01-15 00:00:00 8.2 0 Calma 7 Nordeste 0 1020.2 0.6 75
2020-01-14 23:00:00 9.4 6 Nordeste 10 Norte 0 1020.2 0.7 71
2020-01-14 22:00:00 9.1 2 Norte 9 Norte 0 1019.8 0.8 69
2020-01-14 21:00:00 9.3 3 Noroeste 4 Noroeste 0 1019.6 1.2 71
2020-01-14 20:00:00 10.8 0 Calma 9 Norte 0 1019.5 1 67
2020-01-14 19:00:00 12.2 0 Calma 9 Nordeste 0 1019 0.5 67
2020-01-14 18:00:00 13.4 5 Nordeste 10 Nordeste 0 1018.4 0 68
2020-01-14 17:00:00 14.2 3 Noroeste 14 Sur 0 1018.5 -0.3 66
2020-01-14 16:00:00 15.5 8 Sur 18 Sur 0 1018.5 -1.1 54
2020-01-14 15:00:00 16.1 8 Sur 17 Sur 0 1018.4 -2.2 37
2020-01-14 14:00:00 16.1 9 Sur 14 Sur 0 1018.8 -2.3 43
2020-01-14 13:00:00 16.2 6 Sur 13 Sudeste 0 1019.6 -1.2 44
2020-01-14 12:00:00 15.6 8 Sur 11 Sudoeste 0 1020.6 0.2 49
2020-01-14 11:00:00 15 4 Oeste 9 Oeste 0 1021.1 1 55
2020-01-14 10:00:00 12 0 Calma 8 Norte 0 1020.8 1.3 72
2020-01-14 09:00:00 6.7 4 Noroeste 6 Noroeste 0 1020.4 1.5 81
2020-01-14 08:00:00 7.1 3 Nordeste 8 Nordeste 0 1020.1 1.1 78
2020-01-14 07:00:00 7.7 6 Nordeste 11 Nordeste 0 1019.5 0.4 79
2020-01-14 06:00:00 7.3 3 Nordeste 11 Nordeste 0 1018.9 -0.1 79
2020-01-14 05:00:00 8 7 Nordeste 13 Nordeste 0 1019 0 77
2020-01-14 04:00:00 8 0 Calma 13 Nordeste 0 1019.1 -0.3 77
2020-01-14 03:00:00 7.2 2 Norte 10 Nordeste 0 1019 -1.2 81
2020-01-14 02:00:00 6.4 2 Nordeste 5 Nordeste 0 1019 -1.4 81
2020-01-14 01:00:00 6.9 0 Calma 8 Norte 0 1019.4 -0.9 78
2020-01-14 00:00:00 7.5 5 Norte 8 Norte 0 1020.2 -0.4 78
2020-01-13 23:00:00 8.1 4 Norte 8 Norte 0 1020.4 -0.5 77
2020-01-13 22:00:00 9 0 Calma 9 Norte 0 1020.3 -0.4 76
2020-01-13 21:00:00 11.3 4 Nordeste 13 Nordeste 0 1020.6 0.1 72
2020-01-13 20:00:00 12.1 7 Nordeste 16 Sudoeste 0 1020.9 0.2 70
2020-01-13 19:00:00 13.4 8 Sudoeste 24 Sudoeste 0 1020.7 -0.4 67
2020-01-13 18:00:00 13.7 10 Sudoeste 26 Sur 0 1020.5 -0.8 64
2020-01-13 17:00:00 14.7 10 Sudoeste 27 Sudoeste 0 1020.7 -1.2 61
2020-01-13 16:00:00 15.1 11 Sudoeste 24 Sudoeste 0 1021.1 -2.2 59
2020-01-13 15:00:00 16 11 Sudoeste 22 Sudoeste 0 1021.3 -3 56
2020-01-13 14:00:00 15 11 Sur 19 Sur 0 1021.9 -2.8 59
2020-01-13 13:00:00 15.1 11 Sudoeste 22 Sur 0 1023.3 -1.4 55
2020-01-13 12:00:00 14.8 6 Sur 15 Sur 0 1024.3 -0.2 55
2020-01-13 11:00:00 14.1 4 Noroeste 10 Oeste 0 1024.7 0.4 57
2020-01-13 10:00:00 11.7 0 Calma 6 Norte 0 1024.7 0.6 75
2020-01-13 09:00:00 6.9 0 Calma 8 Nordeste 0 1024.5 0.6 84
2020-01-13 08:00:00 5.5 3 Norte 7 Norte 0 1024.3 0 83
2020-01-13 07:00:00 5.5 3 Norte 10 Norte 0 1024.1 -0.6 81
2020-01-13 06:00:00 5.4 3 Nordeste 8 Norte 0 1023.9 -1.4 80
2020-01-13 05:00:00 5.9 3 Norte 8 Norte 0 1024.3 -1.2 78
2020-01-13 04:00:00 5.6 2 Nordeste 7 Norte 0 1024.7 -1.3 75
2020-01-13 03:00:00 5.9 2 Este 7 Norte 0 1025.3 -1.3 74
2020-01-13 02:00:00 6.3 3 Nordeste 8 Norte 0 1025.5 -1.1 72
2020-01-13 01:00:00 6.6 0 Calma 6 Norte 0 1026 -0.6 69
2020-01-13 00:00:00 8.1 4 Norte 10 Norte 0 1026.6 0.5 64
2020-01-12 23:00:00 8.4 5 Norte 8 Norte 0 1026.6 0.8 64
2020-01-12 22:00:00 9.6 4 Nordeste 11 Nordeste 0 1026.6 0.9 60
2020-01-12 21:00:00 10.3 5 Nordeste 11 Nordeste 0 1026.1 0.9 61
2020-01-12 20:00:00 10.4 3 Nordeste 11 Nordeste 0 1025.8 0.8 73
2020-01-12 19:00:00 12.3 5 Norte 8 Norte 0 1025.7 0.9 72
2020-01-12 18:00:00 14.1 5 Oeste 9 Sudoeste 0 1025.2 0.4 66
2020-01-12 17:00:00 15.6 6 Sur 14 Sur 0 1025 -0.1 60
2020-01-12 16:00:00 16.1 7 Sudoeste 14 Sur 0 1024.8 -1 59
2020-01-12 15:00:00 16.2 9 Sur 16 Sudoeste 0 1024.8 -2 56
2020-01-12 14:00:00 16.3 9 Sur 18 Sur 0 1025.1 -2.1 49
2020-01-12 13:00:00 16.3 9 Sur 18 Sur 0 1025.8 -1.2 38
2020-01-12 12:00:00 16.1 8 Sur 15 Sur 0 1026.8 0 38
2020-01-12 11:00:00 16.3 4 Sudoeste 10 Sudoeste 0 1027.2 0.5 35
2020-01-12 10:00:00 11.7 2 Oeste 10 Este 0 1027 0.3 54
2020-01-12 09:00:00 6.4 2 Noroeste 5 Noroeste 0 1026.8 0.2 82
2020-01-12 08:00:00 6.1 4 Nordeste 8 Nordeste 0 1026.7 -0.1 80
2020-01-12 07:00:00 6.1 3 Norte 10 Norte 0 1026.7 -0.4 81
2020-01-12 06:00:00 6.2 5 Noroeste 8 Norte 0 1026.6 -0.7 82
2020-01-12 05:00:00 6.6 5 Norte 8 Norte 0 1026.8 -0.2 82
2020-01-12 04:00:00 6.7 0 Calma 8 Noroeste 0 1027.1 -0.1 81
2020-01-12 03:00:00 6.8 0 Calma 6 Nordeste 0 1027.3 -0.3 78
2020-01-12 02:00:00 8.2 3 Norte 8 Norte 0 1027 -0.8 76
2020-01-12 01:00:00 7.9 3 Norte 9 Norte 0 1027.2 -0.4 74
2020-01-12 00:00:00 8.3 6 Norte 9 Norte 0 1027.6 0.2 69
2020-01-11 23:00:00 9 5 Norte 9 Norte 0 1027.8 0.6 66
2020-01-11 22:00:00 10 5 Norte 11 Norte 0 1027.6 0.8 64
2020-01-11 21:00:00 10.5 6 Norte 11 Nordeste 0 1027.4 1.5 65
2020-01-11 20:00:00 12.3 4 Nordeste 10 Nordeste 0 1027.2 1.7 62
2020-01-11 19:00:00 13.3 5 Nordeste 17 Sudeste 0 1026.8 1.5 57
2020-01-11 18:00:00 14.3 15 Este 29 Este 0 1025.9 0.7 55
2020-01-11 17:00:00 15.8 15 Sudeste 27 Sudeste 0 1025.5 -0.1 45
2020-01-11 16:00:00 16.9 19 Sudeste 33 Sudeste 0 1025.3 -1 35
2020-01-11 15:00:00 17.5 19 Sudeste 32 Sudeste 0 1025.2 -1.9 32
2020-01-11 14:00:00 17.5 14 Este 34 Este 0 1025.6 -1.5 34
2020-01-11 13:00:00 17.3 14 Este 28 Nordeste 0 1026.3 0 30
2020-01-11 12:00:00 17.1 11 Nordeste 32 Nordeste 0 1027.1 1.2 30
2020-01-11 11:00:00 15.6 6 Norte 28 Nordeste 0 1027.1 1.7 40
2020-01-11 10:00:00 15.2 12 Nordeste 25 Nordeste 0 1026.3 1.5 40
2020-01-11 09:00:00 13.3 6 Norte 22 Nordeste 0 1025.9 1.6 49
2020-01-11 08:00:00 12 8 Norte 27 Noroeste 0 1025.4 1.2 52
2020-01-11 07:00:00 11.9 8 Norte 23 Noroeste 0 1024.8 0.7 53
2020-01-11 06:00:00 11.9 13 Noroeste 35 Norte 0 1024.3 0.4 56
2020-01-11 05:00:00 12.5 13 Norte 25 Norte 0 1024.2 0.6 51
2020-01-11 04:00:00 13.1 7 Norte 24 Nordeste 0 1024.1 0.3 51
2020-01-11 03:00:00 13.4 10 Nordeste 21 Nordeste 0 1023.9 -0.2 49
2020-01-11 02:00:00 12.5 5 Norte 28 Nordeste 0 1023.6 -0.1 51
2020-01-11 01:00:00 13.3 10 Nordeste 20 Nordeste 0 1023.8 0.2 45
2020-01-11 00:00:00 13.5 11 Nordeste 27 Nordeste 0 1024.1 1.1 43
2020-01-10 23:00:00 12.8 7 Norte 21 Este 0 1023.7 1.5 45
2020-01-10 22:00:00 13 12 Este 25 Nordeste 0 1023.6 2.2 44
2020-01-10 21:00:00 11.6 8 Nordeste 17 Nordeste 0 1023 2.6 59
2020-01-10 20:00:00 13 5 Nordeste 14 Este 0 1022.2 2.3 57
2020-01-10 19:00:00 13.9 5 Norte 21 Norte 0 1021.4 1.7 38
2020-01-10 18:00:00 15.6 10 Norte 27 Norte 0 1020.4 0.8 33
2020-01-10 17:00:00 16.3 14 Este 24 Este 0 1019.9 0.2 36
2020-01-10 16:00:00 15.9 12 Sudeste 27 Sudeste 0 1019.7 -0.7 49
2020-01-10 15:00:00 16.5 16 Este 27 Este 0 1019.6 -1.3 43
2020-01-10 14:00:00 17.2 14 Este 24 Este 0 1019.7 -1.2 41
2020-01-10 13:00:00 14.7 5 Este 18 Este 0 1020.4 -0.2 61
2020-01-10 12:00:00 14.4 10 Este 17 Sudeste 0 1020.9 0.8 65
2020-01-10 11:00:00 14.5 6 Sudeste 9 Este 0 1020.9 0.9 63
2020-01-10 10:00:00 13 3 Este 10 Norte 0 1020.6 0.2 68
2020-01-10 09:00:00 9.2 6 Norte 12 Nordeste 0 1020.1 -0.2 81
2020-01-10 08:00:00 8.2 5 Nordeste 10 Nordeste 0 1020 -0.3 84
2020-01-10 07:00:00 8.1 6 Norte 12 Norte 0 1020.4 -0.4 82
2020-01-10 06:00:00 8 3 Norte 6 Nordeste 0 1020.3 -0.7 83
2020-01-10 05:00:00 8.6 5 Norte 7 Norte 0 1020.3 -0.6 83
2020-01-10 04:00:00 10 4 Norte 6 Norte 0 1020.8 -0.7 82
2020-01-10 03:00:00 9.4 2 Nordeste 8 Noroeste 0 1021 -1 83
2020-01-10 02:00:00 9 2 Norte 8 Nordeste 0 1020.9 -1.1 82
2020-01-10 01:00:00 9.5 2 Nordeste 5 Nordeste 0 1021.5 -1.2 81
2020-01-10 00:00:00 10.7 0 Calma 8 Nordeste 0 1022 -1.4 77
2020-01-09 23:00:00 11.3 0 Calma 5 Nordeste 0 1022 -1.6 76
2020-01-09 22:00:00 11.8 0 Calma 4 Nordeste 0 1022.7 -0.3 75
2020-01-09 21:00:00 12.3 2 Noroeste 7 Nordeste 0 1023.4 0.7 74
2020-01-09 20:00:00 12.2 5 Norte 8 Nordeste 0 1023.6 0.8 72
2020-01-09 19:00:00 12 7 Norte 10 Norte 0 1023 0.3 71
2020-01-09 18:00:00 13.6 3 Oeste 12 Sur 0 1022.7 0 66
2020-01-09 17:00:00 15.1 4 Sudeste 17 Sudeste 0 1022.8 -0.4 59
2020-01-09 16:00:00 15.6 7 Sur 17 Sur 0 1022.7 -1.4 56
2020-01-09 15:00:00 15.8 10 Sur 17 Sur 0 1022.7 -2.4 52
2020-01-09 14:00:00 16.5 10 Sur 17 Sur 0 1023.2 -2.4 48
2020-01-09 13:00:00 17.2 3 Sudoeste 8 Sur 0 1024.1 -1.3 45
2020-01-09 12:00:00 15.2 5 Sur 9 Sur 0 1025.1 0.2 52
2020-01-09 11:00:00 13.2 0 Calma 4 Nordeste 0 1025.6 0.7 63
2020-01-09 10:00:00 10.9 4 Noroeste 9 Nordeste 0 1025.4 0.5 74
2020-01-09 09:00:00 9.4 0 Calma 12 Norte 0 1024.9 0.2 75
2020-01-09 08:00:00 9 5 Norte 8 Noroeste 0 1024.9 0.1 77
2020-01-09 07:00:00 9.3 3 Nordeste 6 Norte 0 1024.9 -0.4 76
2020-01-09 06:00:00 9.4 3 Norte 9 Norte 0 1024.7 -0.9 75
2020-01-09 05:00:00 10.7 2 Norte 5 Este 0 1024.8 -1.1 74
2020-01-09 04:00:00 11.2 2 Norte 6 Norte 0 1025.3 -0.9 74
2020-01-09 03:00:00 11.7 6 Noroeste 8 Noroeste 0 1025.6 -1.1 72
2020-01-09 02:00:00 12.3 4 Norte 6 Norte 0 1025.9 -1.1 69
2020-01-09 01:00:00 12.4 4 Nordeste 9 Norte 0 1026.2 -0.9 67
2020-01-09 00:00:00 12.1 4 Norte 6 Norte 0 1026.7 0.1 71
2020-01-08 23:00:00 11.3 3 Nordeste 9 Nordeste 0 1027 0.7 76
2020-01-08 22:00:00 10.3 6 Nordeste 9 Nordeste 0 1027.1 0.9 76
2020-01-08 21:00:00 10.2 5 Norte 9 Nordeste 0 1026.6 0.6 76
2020-01-08 20:00:00 10.7 4 Norte 8 Norte 0 1026.3 0.6 75
2020-01-08 19:00:00 11.9 5 Norte 8 Norte 0 1026.2 0.8 73
2020-01-08 18:00:00 13.5 3 Sudeste 6 Sudoeste 0 1026 0.6 69
2020-01-08 17:00:00 14.8 4 Sur 12 Sur 0 1025.7 0.1 65
2020-01-08 16:00:00 15.3 7 Sur 15 Sudeste 0 1025.4 -0.4 63
2020-01-08 15:00:00 15.2 8 Sudeste 21 Sudeste 0 1025.4 -0.7 64
2020-01-08 14:00:00 15.3 12 Sudeste 27 Este 0 1025.6 -0.8 64
2020-01-08 13:00:00 15.4 17 Este 27 Sudeste 0 1025.8 -0.1 64
2020-01-08 12:00:00 15.3 8 Sudeste 13 Sudeste 0 1026.1 0.8 64
2020-01-08 11:00:00 13.4 7 Este 12 Sudeste 0 1026.4 1.6 77
2020-01-08 10:00:00 10.5 6 Noroeste 12 Norte 0 1025.9 1.4 84
2020-01-08 09:00:00 10.1 6 Norte 12 Norte 0 1025.3 0.9 86
2020-01-08 08:00:00 9.8 5 Nordeste 10 Nordeste 0 1024.8 0.4 87
2020-01-08 07:00:00 8.9 3 Nordeste 9 Nordeste 0 1024.5 -0.2 87
2020-01-08 06:00:00 7.1 3 Noroeste 6 Norte 0 1024.4 -0.6 87
2020-01-08 05:00:00 7.2 3 Norte 6 Norte 0 1024.4 -0.8 86
2020-01-08 04:00:00 7.4 0 Calma 6 Norte 0 1024.7 -0.8 85
2020-01-08 03:00:00 8 0 Calma 8 Norte 0 1025 -1 84
2020-01-08 02:00:00 8.5 3 Nordeste 6 Nordeste 0 1025.2 -1.1 83
2020-01-08 01:00:00 9.9 4 Nordeste 11 Norte 0 1025.5 -1 81
2020-01-08 00:00:00 10.6 4 Norte 9 Nordeste 0 1026 -0.5 81
2020-01-07 23:00:00 10.1 2 Este 8 Norte 0 1026.3 -0.1 80
2020-01-07 22:00:00 10.2 4 Norte 8 Norte 0 1026.5 0 81
2020-01-07 21:00:00 10.2 5 Norte 10 Norte 0 1026.5 0.2 79
2020-01-07 20:00:00 11 5 Norte 10 Norte 0 1026.4 0.3 77
2020-01-07 19:00:00 12.4 4 Norte 9 Noroeste 0 1026.5 0.1 74
2020-01-07 18:00:00 13.2 3 Noroeste 9 Oeste 0 1026.3 0 70
2020-01-07 17:00:00 15 5 Sudoeste 13 Sudoeste 0 1026.1 -0.7 63
2020-01-07 16:00:00 15.3 6 Sur 16 Sur 0 1026.4 -1.4 62
2020-01-07 15:00:00 16.1 6 Sudoeste 17 Sudoeste 0 1026.3 -2.1 58
2020-01-07 14:00:00 15.8 8 Sur 15 Sudoeste 0 1026.8 -1.9 59
2020-01-07 13:00:00 15.5 7 Sudeste 15 Sudeste 0 1027.8 -0.7 61
2020-01-07 12:00:00 15.1 8 Sudeste 18 Sudeste 0 1028.4 0.6 65
2020-01-07 11:00:00 14.8 6 Sudeste 16 Este 0 1028.7 1.5 66
2020-01-07 10:00:00 13.1 0 Calma 10 Este 0 1028.5 1.5 76
2020-01-07 09:00:00 9.2 4 Nordeste 12 Norte 0 1027.8 0.8 83
2020-01-07 08:00:00 7.2 5 Nordeste 10 Nordeste 0 1027.2 0.4 84
2020-01-07 07:00:00 7 4 Nordeste 8 Nordeste 0 1027 0.1 83
2020-01-07 06:00:00 7.8 5 Nordeste 9 Nordeste 0 1027 0.3 81
2020-01-07 05:00:00 7.3 3 Nordeste 10 Nordeste 0 1026.8 0.4 80
2020-01-07 04:00:00 8.4 6 Nordeste 11 Nordeste 0 1026.9 0.2 81
2020-01-07 03:00:00 6.7 0 Calma 7 Nordeste 0 1026.7 -0.2 82
2020-01-07 02:00:00 7.6 5 Norte 9 Norte 0 1026.4 -0.4 82
2020-01-07 01:00:00 8.7 4 Norte 12 Norte 0 1026.7 0.3 80
2020-01-07 00:00:00 8.3 2 Nordeste 9 Norte 0 1026.9 0.7 79
2020-01-06 23:00:00 9 5 Norte 11 Norte 0 1026.8 1 80
2020-01-06 22:00:00 8.5 6 Norte 9 Norte 0 1026.4 0.8 80
2020-01-06 21:00:00 9 2 Norte 9 Nordeste 0 1026.2 1 77
2020-01-06 20:00:00 9.9 3 Nordeste 10 Nordeste 0 1025.8 0.7 73
2020-01-06 19:00:00 11.3 5 Norte 8 Norte 0 1025.6 0.7 70
2020-01-06 18:00:00 13.6 2 Sudoeste 9 Sur 0 1025.2 0.5 63
2020-01-06 17:00:00 15.1 3 Sur 12 Sur 0 1025.1 0.1 58
2020-01-06 16:00:00 15.2 7 Sur 17 Sur 0 1024.9 -1.1 58
2020-01-06 15:00:00 15.8 8 Sudoeste 15 Sudoeste 0 1024.7 -1.9 56
2020-01-06 14:00:00 15.6 8 Sur 14 Sur 0 1025 -1.8 55
2020-01-06 13:00:00 15.9 6 Sudeste 13 Sudoeste 0 1026 -0.6 53
2020-01-06 12:00:00 16 5 Sur 9 Sur 0 1026.6 0.3 55
2020-01-06 11:00:00 14.8 4 Sur 7 Sudeste 0 1026.8 1.2 64
2020-01-06 10:00:00 11.1 0 Calma 4 Noroeste 0.2 1026.6 1.5 84